Flight Track Log - Related Links

Times and Time Zones

All times are in EDT time to prevent confusion due to time zone crossing. See the RPA3262 flight status page for this flight to view local times or setup timezone preferences in your user account.


Time Position Orientation Groundspeed Altitude Reporting Facility
EDT Latitude Longitude Course Direction KTS MPH feet Rate Location/Type
Sun 03:17:58 PM 38.8242 -77.0358 57° Northeast 157 181 29,000  Level Washington Center
Sun 03:18:56 PM 38.7667 -77.0333 178° South 222 255 2,700 -12,202 Descending Potomac TRACON
Sun 03:19:57 PM 38.7333 -76.9667 123° Southeast 293 337 4,800 2,438 Climbing Potomac TRACON
Sun 03:21:00 PM 39.0369 -76.5077 63° Northeast  Level FlightAware Approximate
Sun 03:22:00 PM 39.0908 -76.3771 61° Northeast  Level FlightAware Approximate
Sun 03:22:08 PM 38.8528 -76.9008 23° Northeast 264 304 10,500  Level Washington Center
Sun 03:23:00 PM 39.1288 -76.2423 57° Northeast  Level FlightAware Approximate
Sun 03:23:08 PM 38.9467 -76.8669 16° North 294 338 13,400  Level Washington Center
Sun 03:24:11 PM 39.0278 -76.8369 16° North 305 351 15,200 2,031 Climbing Washington Center
Sun 03:25:15 PM 39.1042 -76.7789 31° Northeast 334 384 17,700 1,776 Climbing Washington Center
Sun 03:26:16 PM 39.1178 -76.6500 82° East 369 425 18,900 1,574 Climbing Washington Center
Sun 03:27:17 PM 39.1303 -76.5078 83° East 396 456 20,900 1,984 Climbing Washington Center
Sun 03:28:20 PM 39.1458 -76.3344 83° East 403 464 23,000 1,016 Climbing Washington Center
Sun 03:29:21 PM 39.1569 -76.1844 84° East 419 482 23,000  Level Washington Center
Sun 03:30:25 PM 39.1728 -76.0417 82° East 418 481 23,000  Level Washington Center
Sun 03:31:26 PM 39.1908 -75.8989 81° East 410 472 23,000 927 Level Washington Center
Sun 03:32:28 PM 39.2603 -75.7925 50° Northeast 397 457 24,900 1,968 Climbing Washington Center
Sun 03:33:31 PM 39.3486 -75.6800 45° Northeast 377 434 27,100 1,935 Climbing Washington Center
Sun 03:34:32 PM 39.4219 -75.5831 46° Northeast 377 434 28,900 912 Climbing Washington Center
Sun 03:35:36 PM 39.4992 -75.4828 45° Northeast 392 451 29,000 48 Climbing Washington Center
Sun 03:36:37 PM 39.5772 -75.3803 45° Northeast 399 459 29,000  Level Washington Center
Sun 03:37:40 PM 39.6556 -75.2775 45° Northeast 399 459 29,000  Level Washington Center
Sun 03:38:42 PM 39.7314 -75.1697 48° Northeast 401 461 29,000  Level Washington Center
Sun 03:39:43 PM 39.8225 -75.0411 47° Northeast 403 464 29,000  Level Washington Center
Sun 03:40:47 PM 39.9031 -74.9258 48° Northeast 401 461 29,000  Level Washington Center
Sun 03:41:42 PM 39.9683 -74.8392 45° Northeast 408 470 29,000  Level New York Center
Sun 03:42:43 PM 40.0494 -74.7217 48° Northeast 402 463 29,000  Level New York Center
Sun 03:43:43 PM 40.1261 -74.6147 47° Northeast 397 457 29,000  Level New York Center
Sun 03:44:41 PM 40.2025 -74.5078 47° Northeast 402 463 29,000  Level New York Center
Sun 03:45:42 PM 40.2722 -74.4081 47° Northeast 407 468 29,000  Level New York Center
Sun 03:47:58 PM 40.4392 -74.1717 47° Northeast 404 465 29,000  Level Boston Center
Sun 03:49:00 PM 40.5308 -74.0447 46° Northeast 399 459 29,000  Level Boston Center
Sun 03:50:02 PM 40.6083 -73.9317 48° Northeast 399 459 29,000  Level Boston Center
Sun 03:51:04 PM 40.6833 -73.8231 48° Northeast 399 459 29,000  Level Boston Center
Sun 03:52:06 PM 40.7583 -73.7128 48° Northeast 400 460 29,000  Level Boston Center
Sun 03:53:08 PM 40.8333 -73.6056 47° Northeast 400 460 29,000  Level Boston Center
Sun 03:54:10 PM 40.9072 -73.4983 48° Northeast 398 458 29,000  Level Boston Center
Sun 03:55:12 PM 40.9794 -73.3914 48° Northeast 391 450 29,000  Level Boston Center
Sun 03:56:14 PM 41.0583 -73.2761 48° Northeast 391 450 29,000  Level Boston Center
Sun 03:57:15 PM 41.1319 -73.1683 48° Northeast 391 450 29,000  Level Boston Center
Sun 03:58:17 PM 41.1961 -73.0486 55° Northeast 400 460 29,000  Level Boston Center
Sun 03:59:19 PM 41.2561 -72.9217 58° Northeast 402 463 29,000  Level Boston Center
Sun 04:00:21 PM 41.3242 -72.7756 58° Northeast 405 466 29,000  Level Boston Center
Sun 04:01:23 PM 41.3883 -72.6531 55° Northeast 405 466 29,000  Level Boston Center
Sun 04:02:25 PM 41.4578 -72.5333 52° Northeast 405 466 29,000  Level Boston Center
Sun 04:03:27 PM 41.5272 -72.4122 53° Northeast 406 467 29,000  Level Boston Center
Sun 04:04:29 PM 41.6008 -72.2819 53° Northeast 407 468 29,000  Level Boston Center
Sun 04:05:31 PM 41.6706 -72.1600 53° Northeast 408 470 29,000  Level Boston Center
Sun 04:06:33 PM 41.7378 -72.0392 53° Northeast 410 472 29,000  Level Boston Center
Sun 04:07:35 PM 41.8064 -71.9192 52° Northeast 408 470 29,000  Level Boston Center
Sun 04:08:36 PM 41.8875 -71.7722 53° Northeast 408 470 29,000  Level Boston Center
Sun 04:09:38 PM 41.9556 -71.6503 53° Northeast 408 470 29,000 -387 Level Boston Center
Sun 04:10:40 PM 42.0236 -71.5269 53° Northeast 408 470 28,200 -774 Descending Boston Center
Sun 04:11:42 PM 42.0914 -71.4053 53° Northeast 408 470 27,400 -726 Descending Boston Center
Sun 04:12:44 PM 42.1586 -71.2831 53° Northeast 407 468 26,700 -774 Descending Boston Center
Sun 04:13:46 PM 42.2306 -71.1517 53° Northeast 403 464 25,800 -823 Descending Boston Center
Sun 04:14:48 PM 42.2961 -71.0314 54° Northeast 401 461 25,000 -726 Descending Boston Center
Sun 04:15:50 PM 42.3606 -70.9106 54° Northeast 400 460 24,300 -484 Descending Boston Center
Sun 04:16:52 PM 42.4344 -70.7811 52° Northeast 394 453 24,000 -145 Descending Boston Center
Sun 04:17:54 PM 42.5300 -70.7225 24° Northeast 376 433 24,000 -871 Level Boston Center
Sun 04:18:56 PM 42.6342 -70.6636 23° Northeast 375 432 22,200 -1,805 Descending Boston Center
Sun 04:19:57 PM 42.7256 -70.6119 23° Northeast 359 413 20,300 -1,902 Descending Boston Center
Sun 04:20:59 PM 42.8189 -70.5517 25° Northeast 347 399 18,300 -1,839 Descending Boston Center
Sun 04:22:01 PM 42.9022 -70.4981 25° Northeast 338 389 16,500 -1,790 Descending Boston Center
Sun 04:23:03 PM 42.9911 -70.4428 24° Northeast 329 379 14,600 -1,742 Descending Boston Center
Sun 04:24:05 PM 43.0681 -70.3819 30° Northeast 324 373 12,900 -1,645 Descending Boston Center
Sun 04:25:07 PM 43.1425 -70.3169 32° Northeast 318 366 11,200 -1,016 Descending Boston Center
Sun 04:26:09 PM 43.2194 -70.2536 31° Northeast 302 348 10,800 -1,355 Descending Boston Center
Sun 04:27:11 PM 43.2978 -70.2236 16° North 293 337 8,400 -2,177 Descending Boston Center
Sun 04:28:13 PM 43.3753 -70.1900 17° North 293 337 6,300 -2,195 Descending Boston Center
Sun 04:29:14 PM 43.4506 -70.1572 18° North 267 307 3,900 -1,610 Descending Boston Center
Sun 04:30:16 PM 43.5192 -70.1286 17° North 261 300 3,000 -629 Descending Boston Center
Sun 04:31:18 PM 43.5842 -70.1450 350° North 215 247 2,600 -145 Descending Boston Center
Sun 04:32:20 PM 43.6400 -70.1622 347° North 211 243 2,700 -387 Climbing Boston Center
Sun 04:33:22 PM 43.6894 -70.1867 340° North 178 205 1,800 -629 Descending Boston Center
Sun 04:34:24 PM 43.6608 -70.2294 227° Southwest 174 200 1,400 -677 Descending Boston Center
Sun 04:35:26 PM 43.6425 -70.2761 242° Southwest 150 173 400 -968 Descending Boston Center

Login

Don't have an account? Register now (free) for customized features, flight alerts, and more!